sensor_id;sensor_type;location;lat;lon;timestamp;P1;durP1;ratioP1;P2;durP2;ratioP2
44728;SDS011;30457;53.590;9.922;2023-02-18T00:02:31;19.30;;;3.50;;
44728;SDS011;30457;53.590;9.922;2023-02-18T00:06:58;18.38;;;2.00;;
44728;SDS011;30457;53.590;9.922;2023-02-18T00:11:25;12.70;;;2.38;;
44728;SDS011;30457;53.590;9.922;2023-02-18T00:15:51;12.65;;;3.30;;
44728;SDS011;30457;53.590;9.922;2023-02-18T00:20:16;19.15;;;2.65;;
44728;SDS011;30457;53.590;9.922;2023-02-18T00:24:42;6.35;;;1.58;;
44728;SDS011;30457;53.590;9.922;2023-02-18T00:29:07;16.77;;;2.40;;
44728;SDS011;30457;53.590;9.922;2023-02-18T00:33:33;14.55;;;2.53;;
44728;SDS011;30457;53.590;9.922;2023-02-18T00:37:59;18.50;;;3.15;;
44728;SDS011;30457;53.590;9.922;2023-02-18T00:42:24;22.02;;;2.28;;
44728;SDS011;30457;53.590;9.922;2023-02-18T00:46:51;11.43;;;2.60;;
44728;SDS011;30457;53.590;9.922;2023-02-18T00:51:17;14.43;;;2.20;;
44728;SDS011;30457;53.590;9.922;2023-02-18T00:55:44;17.60;;;3.15;;
44728;SDS011;30457;53.590;9.922;2023-02-18T01:00:12;22.83;;;2.88;;
44728;SDS011;30457;53.590;9.922;2023-02-18T01:04:37;13.63;;;2.88;;
44728;SDS011;30457;53.590;9.922;2023-02-18T01:09:03;16.23;;;2.50;;
44728;SDS011;30457;53.590;9.922;2023-02-18T01:13:30;12.52;;;1.88;;
44728;SDS011;30457;53.590;9.922;2023-02-18T01:17:56;17.73;;;2.08;;
44728;SDS011;30457;53.590;9.922;2023-02-18T01:22:22;15.68;;;2.42;;
44728;SDS011;30457;53.590;9.922;2023-02-18T01:26:47;12.88;;;3.22;;
44728;SDS011;30457;53.590;9.922;2023-02-18T01:31:13;14.45;;;2.67;;
44728;SDS011;30457;53.590;9.922;2023-02-18T01:35:40;13.93;;;3.72;;
44728;SDS011;30457;53.590;9.922;2023-02-18T01:40:06;16.80;;;3.80;;
44728;SDS011;30457;53.590;9.922;2023-02-18T01:44:33;12.48;;;2.10;;
44728;SDS011;30457;53.590;9.922;2023-02-18T01:48:59;10.50;;;1.88;;
44728;SDS011;30457;53.590;9.922;2023-02-18T01:53:27;17.40;;;2.65;;
44728;SDS011;30457;53.590;9.922;2023-02-18T01:57:58;8.75;;;2.28;;
44728;SDS011;30457;53.590;9.922;2023-02-18T02:02:25;16.77;;;2.72;;
44728;SDS011;30457;53.590;9.922;2023-02-18T02:06:52;16.02;;;2.22;;
44728;SDS011;30457;53.590;9.922;2023-02-18T02:11:23;12.73;;;2.20;;
44728;SDS011;30457;53.590;9.922;2023-02-18T02:16:21;13.50;;;2.75;;
44728;SDS011;30457;53.590;9.922;2023-02-18T02:35:35;9.00;;;1.70;;
44728;SDS011;30457;53.590;9.922;2023-02-18T02:50:14;20.17;;;3.75;;
44728;SDS011;30457;53.590;9.922;2023-02-18T02:54:50;6.57;;;1.08;;
44728;SDS011;30457;53.590;9.922;2023-02-18T02:59:18;8.18;;;1.52;;
44728;SDS011;30457;53.590;9.922;2023-02-18T03:08:31;17.70;;;3.28;;
44728;SDS011;30457;53.590;9.922;2023-02-18T03:13:24;11.63;;;2.00;;
44728;SDS011;30457;53.590;9.922;2023-02-18T03:18:07;8.00;;;1.70;;
44728;SDS011;30457;53.590;9.922;2023-02-18T03:22:40;12.00;;;1.50;;
44728;SDS011;30457;53.590;9.922;2023-02-18T03:27:15;11.70;;;2.40;;
44728;SDS011;30457;53.590;9.922;2023-02-18T03:31:42;14.15;;;1.73;;
44728;SDS011;30457;53.590;9.922;2023-02-18T03:36:11;12.80;;;2.90;;
44728;SDS011;30457;53.590;9.922;2023-02-18T03:40:37;6.03;;;1.30;;
44728;SDS011;30457;53.590;9.922;2023-02-18T03:45:03;10.25;;;1.73;;
44728;SDS011;30457;53.590;9.922;2023-02-18T03:49:29;12.00;;;1.83;;
44728;SDS011;30457;53.590;9.922;2023-02-18T03:53:54;10.55;;;1.83;;
44728;SDS011;30457;53.590;9.922;2023-02-18T03:58:20;12.35;;;2.50;;
44728;SDS011;30457;53.590;9.922;2023-02-18T04:02:46;8.02;;;1.70;;
44728;SDS011;30457;53.590;9.922;2023-02-18T04:07:11;11.90;;;2.38;;
44728;SDS011;30457;53.590;9.922;2023-02-18T04:11:37;6.60;;;1.30;;
44728;SDS011;30457;53.590;9.922;2023-02-18T04:16:04;13.23;;;2.10;;
44728;SDS011;30457;53.590;9.922;2023-02-18T04:20:30;10.13;;;1.60;;
44728;SDS011;30457;53.590;9.922;2023-02-18T04:24:55;9.50;;;1.25;;
44728;SDS011;30457;53.590;9.922;2023-02-18T04:29:21;8.40;;;1.40;;
44728;SDS011;30457;53.590;9.922;2023-02-18T04:33:47;9.43;;;1.25;;
44728;SDS011;30457;53.590;9.922;2023-02-18T04:38:12;8.77;;;1.95;;
44728;SDS011;30457;53.590;9.922;2023-02-18T04:42:38;6.80;;;1.77;;
44728;SDS011;30457;53.590;9.922;2023-02-18T04:47:04;9.25;;;2.78;;
44728;SDS011;30457;53.590;9.922;2023-02-18T04:51:30;15.02;;;2.95;;
44728;SDS011;30457;53.590;9.922;2023-02-18T04:55:56;4.47;;;1.17;;
44728;SDS011;30457;53.590;9.922;2023-02-18T05:00:21;7.03;;;1.35;;
44728;SDS011;30457;53.590;9.922;2023-02-18T05:04:47;4.43;;;1.65;;
44728;SDS011;30457;53.590;9.922;2023-02-18T05:09:13;8.70;;;1.98;;
44728;SDS011;30457;53.590;9.922;2023-02-18T05:13:39;13.27;;;2.10;;
44728;SDS011;30457;53.590;9.922;2023-02-18T05:18:04;7.60;;;1.20;;
44728;SDS011;30457;53.590;9.922;2023-02-18T05:22:31;3.80;;;1.40;;
44728;SDS011;30457;53.590;9.922;2023-02-18T05:26:56;7.20;;;1.30;;
44728;SDS011;30457;53.590;9.922;2023-02-18T05:31:22;6.18;;;1.40;;
44728;SDS011;30457;53.590;9.922;2023-02-18T05:35:48;5.75;;;1.23;;
44728;SDS011;30457;53.590;9.922;2023-02-18T05:40:14;5.75;;;1.10;;
44728;SDS011;30457;53.590;9.922;2023-02-18T05:44:39;5.55;;;0.93;;
44728;SDS011;30457;53.590;9.922;2023-02-18T05:49:05;10.15;;;1.52;;
44728;SDS011;30457;53.590;9.922;2023-02-18T05:53:30;7.10;;;1.00;;
44728;SDS011;30457;53.590;9.922;2023-02-18T05:57:56;7.45;;;1.90;;
44728;SDS011;30457;53.590;9.922;2023-02-18T06:02:21;7.13;;;1.30;;
44728;SDS011;30457;53.590;9.922;2023-02-18T06:06:47;9.88;;;2.42;;
44728;SDS011;30457;53.590;9.922;2023-02-18T06:11:13;6.97;;;1.40;;
44728;SDS011;30457;53.590;9.922;2023-02-18T06:15:38;5.22;;;0.98;;
44728;SDS011;30457;53.590;9.922;2023-02-18T06:20:04;5.97;;;1.02;;
44728;SDS011;30457;53.590;9.922;2023-02-18T06:24:30;3.08;;;0.88;;
44728;SDS011;30457;53.590;9.922;2023-02-18T06:28:56;3.15;;;0.93;;
44728;SDS011;30457;53.590;9.922;2023-02-18T06:33:21;6.10;;;0.98;;
44728;SDS011;30457;53.590;9.922;2023-02-18T06:37:47;6.13;;;1.77;;
44728;SDS011;30457;53.590;9.922;2023-02-18T06:42:13;4.05;;;0.88;;
44728;SDS011;30457;53.590;9.922;2023-02-18T06:46:38;7.63;;;1.25;;
44728;SDS011;30457;53.590;9.922;2023-02-18T06:51:04;5.20;;;1.00;;
44728;SDS011;30457;53.590;9.922;2023-02-18T06:55:30;4.18;;;0.95;;
44728;SDS011;30457;53.590;9.922;2023-02-18T06:59:55;6.07;;;1.67;;
44728;SDS011;30457;53.590;9.922;2023-02-18T07:04:21;7.03;;;0.95;;
44728;SDS011;30457;53.590;9.922;2023-02-18T07:08:47;1.85;;;0.65;;
44728;SDS011;30457;53.590;9.922;2023-02-18T07:13:13;6.30;;;1.10;;
44728;SDS011;30457;53.590;9.922;2023-02-18T07:17:39;3.08;;;0.80;;
44728;SDS011;30457;53.590;9.922;2023-02-18T07:22:05;2.35;;;0.80;;
44728;SDS011;30457;53.590;9.922;2023-02-18T07:26:30;4.25;;;1.10;;
44728;SDS011;30457;53.590;9.922;2023-02-18T07:30:56;6.55;;;0.98;;
44728;SDS011;30457;53.590;9.922;2023-02-18T07:35:22;5.97;;;1.00;;
44728;SDS011;30457;53.590;9.922;2023-02-18T07:39:47;6.22;;;1.05;;
44728;SDS011;30457;53.590;9.922;2023-02-18T07:44:13;2.72;;;0.80;;
44728;SDS011;30457;53.590;9.922;2023-02-18T07:48:39;4.80;;;0.70;;
44728;SDS011;30457;53.590;9.922;2023-02-18T07:53:04;4.07;;;1.20;;
44728;SDS011;30457;53.590;9.922;2023-02-18T07:57:30;6.32;;;1.52;;
44728;SDS011;30457;53.590;9.922;2023-02-18T08:01:56;6.15;;;1.13;;
44728;SDS011;30457;53.590;9.922;2023-02-18T08:06:24;3.67;;;1.70;;
44728;SDS011;30457;53.590;9.922;2023-02-18T08:10:54;9.07;;;1.88;;
44728;SDS011;30457;53.590;9.922;2023-02-18T08:15:21;5.95;;;1.00;;
44728;SDS011;30457;53.590;9.922;2023-02-18T08:19:47;4.45;;;0.80;;
44728;SDS011;30457;53.590;9.922;2023-02-18T08:24:12;4.55;;;1.50;;
44728;SDS011;30457;53.590;9.922;2023-02-18T08:28:38;6.45;;;1.80;;
44728;SDS011;30457;53.590;9.922;2023-02-18T08:33:04;4.93;;;1.20;;
44728;SDS011;30457;53.590;9.922;2023-02-18T08:37:29;3.20;;;1.33;;
44728;SDS011;30457;53.590;9.922;2023-02-18T08:41:55;2.88;;;1.13;;
44728;SDS011;30457;53.590;9.922;2023-02-18T08:46:21;9.82;;;1.83;;
44728;SDS011;30457;53.590;9.922;2023-02-18T08:50:47;8.88;;;1.95;;
44728;SDS011;30457;53.590;9.922;2023-02-18T08:55:12;2.28;;;1.35;;
44728;SDS011;30457;53.590;9.922;2023-02-18T08:59:38;7.03;;;1.65;;
44728;SDS011;30457;53.590;9.922;2023-02-18T09:04:04;9.88;;;2.60;;
44728;SDS011;30457;53.590;9.922;2023-02-18T09:08:29;7.18;;;1.42;;
44728;SDS011;30457;53.590;9.922;2023-02-18T09:12:55;5.75;;;2.90;;
44728;SDS011;30457;53.590;9.922;2023-02-18T09:17:21;7.57;;;1.88;;
44728;SDS011;30457;53.590;9.922;2023-02-18T09:21:46;3.10;;;1.75;;
44728;SDS011;30457;53.590;9.922;2023-02-18T09:26:12;5.13;;;1.90;;
44728;SDS011;30457;53.590;9.922;2023-02-18T09:30:39;6.50;;;1.95;;
44728;SDS011;30457;53.590;9.922;2023-02-18T09:35:05;4.47;;;2.28;;
44728;SDS011;30457;53.590;9.922;2023-02-18T09:39:30;5.20;;;2.42;;
44728;SDS011;30457;53.590;9.922;2023-02-18T09:43:58;3.90;;;2.53;;
44728;SDS011;30457;53.590;9.922;2023-02-18T09:48:40;4.25;;;2.72;;
44728;SDS011;30457;53.590;9.922;2023-02-18T09:53:09;4.45;;;3.00;;
44728;SDS011;30457;53.590;9.922;2023-02-18T10:02:08;4.15;;;2.90;;
44728;SDS011;30457;53.590;9.922;2023-02-18T10:06:40;5.47;;;3.17;;
44728;SDS011;30457;53.590;9.922;2023-02-18T10:11:13;6.57;;;3.63;;
44728;SDS011;30457;53.590;9.922;2023-02-18T10:15:49;6.43;;;4.40;;
44728;SDS011;30457;53.590;9.922;2023-02-18T10:20:19;4.95;;;4.35;;
44728;SDS011;30457;53.590;9.922;2023-02-18T10:29:16;4.82;;;3.60;;
44728;SDS011;30457;53.590;9.922;2023-02-18T10:33:45;3.60;;;2.85;;
44728;SDS011;30457;53.590;9.922;2023-02-18T10:58:01;3.33;;;2.47;;
44728;SDS011;30457;53.590;9.922;2023-02-18T11:02:29;2.70;;;1.88;;
44728;SDS011;30457;53.590;9.922;2023-02-18T11:06:56;3.25;;;2.95;;
44728;SDS011;30457;53.590;9.922;2023-02-18T11:11:31;3.40;;;2.75;;
44728;SDS011;30457;53.590;9.922;2023-02-18T11:16:04;3.95;;;1.90;;
44728;SDS011;30457;53.590;9.922;2023-02-18T11:25:01;2.88;;;2.00;;
44728;SDS011;30457;53.590;9.922;2023-02-18T11:29:28;5.57;;;2.72;;
44728;SDS011;30457;53.590;9.922;2023-02-18T11:33:57;4.88;;;3.85;;
44728;SDS011;30457;53.590;9.922;2023-02-18T11:38:26;4.10;;;2.65;;
44728;SDS011;30457;53.590;9.922;2023-02-18T11:47:36;1.42;;;1.17;;
44728;SDS011;30457;53.590;9.922;2023-02-18T11:57:32;1.00;;;0.90;;
44728;SDS011;30457;53.590;9.922;2023-02-18T12:01:45;1.17;;;1.00;;
44728;SDS011;30457;53.590;9.922;2023-02-18T12:06:17;0.68;;;0.63;;
44728;SDS011;30457;53.590;9.922;2023-02-18T12:10:56;0.63;;;0.60;;
44728;SDS011;30457;53.590;9.922;2023-02-18T12:15:51;0.40;;;0.30;;
44728;SDS011;30457;53.590;9.922;2023-02-18T12:20:44;0.38;;;0.38;;
44728;SDS011;30457;53.590;9.922;2023-02-18T12:25:37;1.58;;;0.30;;
44728;SDS011;30457;53.590;9.922;2023-02-18T12:50:00;5.70;;;1.45;;
44728;SDS011;30457;53.590;9.922;2023-02-18T13:08:46;4.10;;;1.30;;
44728;SDS011;30457;53.590;9.922;2023-02-18T13:13:26;9.40;;;3.22;;
44728;SDS011;30457;53.590;9.922;2023-02-18T13:17:59;9.80;;;2.88;;
44728;SDS011;30457;53.590;9.922;2023-02-18T13:22:28;7.22;;;1.70;;
44728;SDS011;30457;53.590;9.922;2023-02-18T13:26:56;9.88;;;3.08;;
44728;SDS011;30457;53.590;9.922;2023-02-18T13:36:20;6.22;;;1.38;;
44728;SDS011;30457;53.590;9.922;2023-02-18T13:40:52;11.80;;;2.63;;
44728;SDS011;30457;53.590;9.922;2023-02-18T13:45:22;10.20;;;1.98;;
44728;SDS011;30457;53.590;9.922;2023-02-18T13:49:53;6.32;;;1.60;;
44728;SDS011;30457;53.590;9.922;2023-02-18T13:54:28;12.38;;;2.53;;
44728;SDS011;30457;53.590;9.922;2023-02-18T14:08:12;11.52;;;2.75;;
44728;SDS011;30457;53.590;9.922;2023-02-18T14:17:31;3.72;;;1.35;;
44728;SDS011;30457;53.590;9.922;2023-02-18T14:26:52;1.83;;;1.17;;
44728;SDS011;30457;53.590;9.922;2023-02-18T14:31:36;1.92;;;0.90;;
44728;SDS011;30457;53.590;9.922;2023-02-18T14:40:48;2.55;;;1.33;;
44728;SDS011;30457;53.590;9.922;2023-02-18T14:50:02;3.42;;;1.40;;
44728;SDS011;30457;53.590;9.922;2023-02-18T14:54:34;1.05;;;1.00;;
44728;SDS011;30457;53.590;9.922;2023-02-18T14:59:01;1.30;;;1.20;;
44728;SDS011;30457;53.590;9.922;2023-02-18T15:03:27;0.93;;;0.93;;
44728;SDS011;30457;53.590;9.922;2023-02-18T15:12:25;0.80;;;0.80;;
44728;SDS011;30457;53.590;9.922;2023-02-18T15:16:50;1.17;;;0.80;;
44728;SDS011;30457;53.590;9.922;2023-02-18T15:21:20;1.25;;;0.70;;
44728;SDS011;30457;53.590;9.922;2023-02-18T15:25:49;0.52;;;0.52;;
44728;SDS011;30457;53.590;9.922;2023-02-18T15:34:49;0.70;;;0.70;;
44728;SDS011;30457;53.590;9.922;2023-02-18T15:39:16;0.60;;;0.60;;
44728;SDS011;30457;53.590;9.922;2023-02-18T15:43:55;0.60;;;0.60;;
44728;SDS011;30457;53.590;9.922;2023-02-18T15:48:42;0.80;;;0.80;;
44728;SDS011;30457;53.590;9.922;2023-02-18T15:53:13;1.73;;;1.17;;
44728;SDS011;30457;53.590;9.922;2023-02-18T15:57:41;0.52;;;0.52;;
44728;SDS011;30457;53.590;9.922;2023-02-18T16:06:36;1.40;;;0.88;;
44728;SDS011;30457;53.590;9.922;2023-02-18T16:11:09;1.85;;;1.75;;
44728;SDS011;30457;53.590;9.922;2023-02-18T16:15:37;1.05;;;1.02;;
44728;SDS011;30457;53.590;9.922;2023-02-18T16:20:15;1.00;;;1.00;;
44728;SDS011;30457;53.590;9.922;2023-02-18T16:29:40;1.35;;;1.02;;
44728;SDS011;30457;53.590;9.922;2023-02-18T16:34:07;1.02;;;1.00;;
44728;SDS011;30457;53.590;9.922;2023-02-18T16:38:33;3.55;;;3.25;;
44728;SDS011;30457;53.590;9.922;2023-02-18T16:42:59;2.42;;;1.40;;
44728;SDS011;30457;53.590;9.922;2023-02-18T16:47:36;1.95;;;1.20;;
44728;SDS011;30457;53.590;9.922;2023-02-18T16:52:05;2.42;;;1.75;;
44728;SDS011;30457;53.590;9.922;2023-02-18T16:56:32;1.50;;;1.40;;
44728;SDS011;30457;53.590;9.922;2023-02-18T17:00:59;2.25;;;1.70;;
44728;SDS011;30457;53.590;9.922;2023-02-18T17:05:27;2.00;;;1.80;;
44728;SDS011;30457;53.590;9.922;2023-02-18T17:09:54;3.20;;;1.52;;
44728;SDS011;30457;53.590;9.922;2023-02-18T17:14:20;2.40;;;2.20;;
44728;SDS011;30457;53.590;9.922;2023-02-18T17:18:46;1.75;;;1.60;;
44728;SDS011;30457;53.590;9.922;2023-02-18T17:23:15;1.60;;;1.50;;
44728;SDS011;30457;53.590;9.922;2023-02-18T17:27:42;2.00;;;1.30;;
44728;SDS011;30457;53.590;9.922;2023-02-18T17:32:08;2.25;;;1.88;;
44728;SDS011;30457;53.590;9.922;2023-02-18T17:36:36;2.58;;;2.05;;
44728;SDS011;30457;53.590;9.922;2023-02-18T17:41:03;4.18;;;2.80;;
44728;SDS011;30457;53.590;9.922;2023-02-18T17:45:34;4.25;;;3.30;;
44728;SDS011;30457;53.590;9.922;2023-02-18T17:50:04;5.85;;;4.40;;
44728;SDS011;30457;53.590;9.922;2023-02-18T17:54:30;3.30;;;2.65;;
44728;SDS011;30457;53.590;9.922;2023-02-18T17:58:55;2.80;;;2.47;;
44728;SDS011;30457;53.590;9.922;2023-02-18T18:03:21;4.05;;;2.60;;
44728;SDS011;30457;53.590;9.922;2023-02-18T18:07:47;3.40;;;2.90;;
44728;SDS011;30457;53.590;9.922;2023-02-18T18:12:14;3.88;;;3.05;;
44728;SDS011;30457;53.590;9.922;2023-02-18T18:16:40;5.55;;;4.65;;
44728;SDS011;30457;53.590;9.922;2023-02-18T18:21:09;5.22;;;3.70;;
44728;SDS011;30457;53.590;9.922;2023-02-18T18:25:48;4.10;;;3.25;;
44728;SDS011;30457;53.590;9.922;2023-02-18T18:30:15;4.13;;;3.00;;
44728;SDS011;30457;53.590;9.922;2023-02-18T18:34:41;3.85;;;3.03;;
44728;SDS011;30457;53.590;9.922;2023-02-18T18:39:08;3.97;;;2.92;;
44728;SDS011;30457;53.590;9.922;2023-02-18T18:43:33;4.68;;;3.47;;
44728;SDS011;30457;53.590;9.922;2023-02-18T18:48:02;8.10;;;4.60;;
44728;SDS011;30457;53.590;9.922;2023-02-18T18:52:29;5.80;;;4.22;;
44728;SDS011;30457;53.590;9.922;2023-02-18T18:56:54;10.63;;;5.35;;
44728;SDS011;30457;53.590;9.922;2023-02-18T19:01:20;8.25;;;5.50;;
44728;SDS011;30457;53.590;9.922;2023-02-18T19:05:47;9.25;;;5.55;;
44728;SDS011;30457;53.590;9.922;2023-02-18T19:10:13;8.70;;;5.93;;
44728;SDS011;30457;53.590;9.922;2023-02-18T19:14:39;7.53;;;6.28;;
44728;SDS011;30457;53.590;9.922;2023-02-18T19:19:05;8.63;;;5.93;;
44728;SDS011;30457;53.590;9.922;2023-02-18T19:23:34;11.18;;;6.22;;
44728;SDS011;30457;53.590;9.922;2023-02-18T19:28:01;7.28;;;6.35;;
44728;SDS011;30457;53.590;9.922;2023-02-18T19:32:27;7.45;;;6.00;;
44728;SDS011;30457;53.590;9.922;2023-02-18T19:36:53;7.90;;;6.47;;
44728;SDS011;30457;53.590;9.922;2023-02-18T19:41:19;8.85;;;7.90;;
44728;SDS011;30457;53.590;9.922;2023-02-18T19:45:45;6.68;;;5.72;;
44728;SDS011;30457;53.590;9.922;2023-02-18T19:50:13;7.75;;;6.57;;
44728;SDS011;30457;53.590;9.922;2023-02-18T19:54:39;7.90;;;5.55;;
44728;SDS011;30457;53.590;9.922;2023-02-18T19:59:05;6.63;;;4.60;;
44728;SDS011;30457;53.590;9.922;2023-02-18T20:03:31;8.07;;;4.63;;
44728;SDS011;30457;53.590;9.922;2023-02-18T20:07:57;6.38;;;4.88;;
44728;SDS011;30457;53.590;9.922;2023-02-18T20:12:22;6.32;;;4.40;;
44728;SDS011;30457;53.590;9.922;2023-02-18T20:16:48;4.72;;;3.72;;
44728;SDS011;30457;53.590;9.922;2023-02-18T20:21:14;7.70;;;3.67;;
44728;SDS011;30457;53.590;9.922;2023-02-18T20:25:39;4.20;;;3.05;;
44728;SDS011;30457;53.590;9.922;2023-02-18T20:30:05;2.85;;;2.22;;
44728;SDS011;30457;53.590;9.922;2023-02-18T20:34:32;2.92;;;2.45;;
44728;SDS011;30457;53.590;9.922;2023-02-18T20:38:57;4.78;;;2.47;;
44728;SDS011;30457;53.590;9.922;2023-02-18T20:43:23;3.00;;;2.45;;
44728;SDS011;30457;53.590;9.922;2023-02-18T20:47:50;3.38;;;2.80;;
44728;SDS011;30457;53.590;9.922;2023-02-18T20:52:15;5.25;;;3.03;;
44728;SDS011;30457;53.590;9.922;2023-02-18T20:56:42;5.35;;;3.72;;
44728;SDS011;30457;53.590;9.922;2023-02-18T21:01:09;5.18;;;3.65;;
44728;SDS011;30457;53.590;9.922;2023-02-18T21:05:36;6.57;;;5.03;;
44728;SDS011;30457;53.590;9.922;2023-02-18T21:10:01;7.38;;;4.78;;
44728;SDS011;30457;53.590;9.922;2023-02-18T21:14:28;6.78;;;4.40;;
44728;SDS011;30457;53.590;9.922;2023-02-18T21:18:53;5.40;;;3.88;;
44728;SDS011;30457;53.590;9.922;2023-02-18T21:23:19;4.15;;;3.42;;
44728;SDS011;30457;53.590;9.922;2023-02-18T21:27:45;6.68;;;5.53;;
44728;SDS011;30457;53.590;9.922;2023-02-18T21:32:10;6.85;;;5.63;;
44728;SDS011;30457;53.590;9.922;2023-02-18T21:36:36;10.15;;;4.00;;
44728;SDS011;30457;53.590;9.922;2023-02-18T21:41:03;4.35;;;3.50;;
44728;SDS011;30457;53.590;9.922;2023-02-18T21:45:29;8.70;;;3.60;;
44728;SDS011;30457;53.590;9.922;2023-02-18T21:49:55;15.70;;;4.85;;
44728;SDS011;30457;53.590;9.922;2023-02-18T21:54:21;6.53;;;4.53;;
44728;SDS011;30457;53.590;9.922;2023-02-18T21:58:48;5.43;;;4.60;;
44728;SDS011;30457;53.590;9.922;2023-02-18T22:03:14;5.32;;;4.65;;
44728;SDS011;30457;53.590;9.922;2023-02-18T22:07:39;5.55;;;4.75;;
44728;SDS011;30457;53.590;9.922;2023-02-18T22:12:05;6.15;;;4.63;;
44728;SDS011;30457;53.590;9.922;2023-02-18T22:16:31;5.88;;;4.63;;
44728;SDS011;30457;53.590;9.922;2023-02-18T22:20:57;7.18;;;4.43;;
44728;SDS011;30457;53.590;9.922;2023-02-18T22:25:23;8.48;;;4.20;;
44728;SDS011;30457;53.590;9.922;2023-02-18T22:29:48;5.07;;;4.00;;
44728;SDS011;30457;53.590;9.922;2023-02-18T22:34:14;5.22;;;4.00;;
44728;SDS011;30457;53.590;9.922;2023-02-18T22:38:40;5.00;;;3.95;;
44728;SDS011;30457;53.590;9.922;2023-02-18T22:43:06;4.57;;;3.13;;
44728;SDS011;30457;53.590;9.922;2023-02-18T22:47:31;6.60;;;3.58;;
44728;SDS011;30457;53.590;9.922;2023-02-18T22:51:57;6.10;;;3.33;;
44728;SDS011;30457;53.590;9.922;2023-02-18T22:56:23;11.55;;;9.38;;
44728;SDS011;30457;53.590;9.922;2023-02-18T23:00:50;3.00;;;2.70;;
44728;SDS011;30457;53.590;9.922;2023-02-18T23:05:15;4.30;;;2.90;;
44728;SDS011;30457;53.590;9.922;2023-02-18T23:09:41;3.72;;;2.47;;
44728;SDS011;30457;53.590;9.922;2023-02-18T23:14:07;3.80;;;2.67;;
44728;SDS011;30457;53.590;9.922;2023-02-18T23:18:42;4.27;;;2.67;;
44728;SDS011;30457;53.590;9.922;2023-02-18T23:23:07;5.82;;;2.38;;
44728;SDS011;30457;53.590;9.922;2023-02-18T23:27:33;4.25;;;2.42;;
44728;SDS011;30457;53.590;9.922;2023-02-18T23:31:58;4.43;;;2.63;;
44728;SDS011;30457;53.590;9.922;2023-02-18T23:36:25;5.47;;;2.47;;
44728;SDS011;30457;53.590;9.922;2023-02-18T23:40:53;3.92;;;1.92;;
44728;SDS011;30457;53.590;9.922;2023-02-18T23:45:19;4.20;;;2.17;;
44728;SDS011;30457;53.590;9.922;2023-02-18T23:49:44;2.70;;;1.98;;
44728;SDS011;30457;53.590;9.922;2023-02-18T23:54:10;4.13;;;2.05;;
44728;SDS011;30457;53.590;9.922;2023-02-18T23:58:36;2.90;;;1.98;;
